createdAt,value
2023-05-23T00:01:07.345Z,53.58
2023-05-23T00:03:35.089Z,52.68
2023-05-23T00:06:02.392Z,57.39
2023-05-23T00:08:29.174Z,54.78
2023-05-23T00:10:55.905Z,58.60
2023-05-23T00:13:22.984Z,51.56
2023-05-23T00:15:49.936Z,53.47
2023-05-23T00:18:17.082Z,51.65
2023-05-23T00:20:45.620Z,52.33
2023-05-23T00:23:19.333Z,51.45
2023-05-23T00:25:52.820Z,52.63
2023-05-23T00:28:20.935Z,54.03
2023-05-23T00:30:51.694Z,55.50
2023-05-23T00:33:22.134Z,52.58
2023-05-23T00:35:49.322Z,54.35
2023-05-23T00:38:17.302Z,51.88
2023-05-23T00:40:44.134Z,52.54
2023-05-23T00:43:11.069Z,52.46
2023-05-23T00:45:38.155Z,51.84
2023-05-23T00:48:06.519Z,53.07
2023-05-23T00:50:33.967Z,54.67
2023-05-23T00:53:01.851Z,53.85
2023-05-23T00:55:29.040Z,52.02
2023-05-23T00:57:57.367Z,55.08
2023-05-23T01:00:26.124Z,54.78
2023-05-23T01:02:53.621Z,50.81
2023-05-23T01:05:22.677Z,51.39
2023-05-23T01:07:51.116Z,54.70
2023-05-23T01:10:21.541Z,53.88
2023-05-23T01:13:05.928Z,53.19
2023-05-23T01:15:54.510Z,54.74
2023-05-23T01:18:31.003Z,55.82
2023-05-23T01:21:06.680Z,57.61
2023-05-23T01:23:47.563Z,51.90
2023-05-23T01:26:32.857Z,51.29
2023-05-23T01:29:13.812Z,50.02
2023-05-23T01:31:46.359Z,52.57
2023-05-23T01:34:14.389Z,54.40
2023-05-23T01:36:43.768Z,54.36
2023-05-23T01:39:11.426Z,53.50
2023-05-23T01:41:38.523Z,53.64
2023-05-23T01:44:06.189Z,52.65
2023-05-23T01:46:35.886Z,53.78
2023-05-23T01:49:04.678Z,52.22
2023-05-23T01:51:34.561Z,51.03
2023-05-23T01:54:02.536Z,51.52
2023-05-23T01:56:30.538Z,53.88
2023-05-23T01:58:57.905Z,53.65
2023-05-23T02:01:24.801Z,55.10
2023-05-23T02:03:51.625Z,51.75
2023-05-23T02:06:18.422Z,51.60
2023-05-23T02:08:46.820Z,51.44
2023-05-23T02:11:13.597Z,50.03
2023-05-23T02:13:40.535Z,51.30
2023-05-23T02:16:08.101Z,50.29
2023-05-23T02:18:38.240Z,51.63
2023-05-23T02:21:06.059Z,51.59
2023-05-23T02:23:33.043Z,50.64
2023-05-23T02:25:59.782Z,52.59
2023-05-23T02:28:26.530Z,51.34
2023-05-23T02:30:53.317Z,51.25
2023-05-23T02:33:20.175Z,53.28
2023-05-23T02:35:47.912Z,54.41
2023-05-23T02:38:15.788Z,51.30
2023-05-23T02:40:42.593Z,53.05
2023-05-23T02:43:09.312Z,52.39
2023-05-23T02:45:36.388Z,52.03
2023-05-23T02:48:04.314Z,53.67
2023-05-23T02:50:31.627Z,56.14
2023-05-23T02:52:58.514Z,56.41
2023-05-23T02:55:25.373Z,53.48
2023-05-23T02:57:52.439Z,52.66
2023-05-23T03:00:19.539Z,54.65
2023-05-23T03:02:50.929Z,55.60
2023-05-23T03:05:18.467Z,54.82
2023-05-23T03:07:45.914Z,58.84
2023-05-23T03:10:12.938Z,52.57
2023-05-23T03:12:39.732Z,54.62
2023-05-23T03:15:07.900Z,59.81
2023-05-23T03:17:37.184Z,56.87
2023-05-23T03:20:04.970Z,57.00
2023-05-23T03:22:32.281Z,56.99
2023-05-23T03:24:59.045Z,53.47
2023-05-23T03:27:26.842Z,54.29
2023-05-23T03:29:53.646Z,54.36
2023-05-23T03:32:20.549Z,54.52
2023-05-23T03:34:47.431Z,55.62
2023-05-23T03:37:14.221Z,58.04
2023-05-23T03:39:41.165Z,53.06
2023-05-23T03:42:08.126Z,56.52
2023-05-23T03:44:34.952Z,54.39
2023-05-23T03:47:04.011Z,52.58
2023-05-23T03:49:30.816Z,54.67
2023-05-23T03:51:57.725Z,55.16
2023-05-23T03:54:24.467Z,52.46
2023-05-23T03:56:52.240Z,51.79
2023-05-23T03:59:19.633Z,56.79
2023-05-23T04:01:46.555Z,54.30
2023-05-23T04:04:13.660Z,57.71
2023-05-23T04:06:40.606Z,54.51
2023-05-23T04:09:07.430Z,56.05
2023-05-23T04:11:38.455Z,55.54
2023-05-23T04:14:05.327Z,56.57
2023-05-23T04:16:33.456Z,53.72
2023-05-23T04:19:05.497Z,59.03
2023-05-23T04:21:32.811Z,57.39
2023-05-23T04:24:08.264Z,56.50
2023-05-23T04:26:36.574Z,56.98
2023-05-23T04:29:06.432Z,55.79
2023-05-23T04:31:36.545Z,58.00
2023-05-23T04:34:04.199Z,56.03
2023-05-23T04:36:38.244Z,56.42
2023-05-23T04:39:06.228Z,55.39
2023-05-23T04:41:38.753Z,57.53
2023-05-23T04:44:18.282Z,57.49
2023-05-23T04:47:09.727Z,54.45
2023-05-23T04:50:09.917Z,54.55
2023-05-23T04:52:37.165Z,58.70
2023-05-23T04:55:04.801Z,54.91
2023-05-23T04:57:31.713Z,56.47
2023-05-23T04:59:59.457Z,58.47
2023-05-23T05:02:27.531Z,56.72
2023-05-23T05:04:54.394Z,58.53
2023-05-23T05:07:21.717Z,56.68
2023-05-23T05:09:48.792Z,58.34
2023-05-23T05:12:16.919Z,56.10
2023-05-23T05:14:43.698Z,57.33
2023-05-23T05:17:10.686Z,59.97
2023-05-23T05:19:50.458Z,61.13
2023-05-23T05:22:18.634Z,58.87
2023-05-23T05:24:45.538Z,57.92
2023-05-23T05:27:12.631Z,58.07
2023-05-23T05:29:39.395Z,55.40
2023-05-23T05:32:09.178Z,56.25
2023-05-23T05:34:38.080Z,57.55
2023-05-23T05:37:06.138Z,57.07
2023-05-23T05:39:33.199Z,55.96
2023-05-23T05:42:03.818Z,53.02
2023-05-23T05:44:30.976Z,54.32
2023-05-23T05:46:58.084Z,54.66
2023-05-23T05:49:25.081Z,52.18
2023-05-23T05:51:51.965Z,54.46
2023-05-23T05:54:19.447Z,53.36
2023-05-23T05:56:47.362Z,52.77
2023-05-23T05:59:14.689Z,55.24
2023-05-23T06:01:41.655Z,56.67
2023-05-23T06:04:08.800Z,55.49
2023-05-23T06:06:35.712Z,52.06
2023-05-23T06:09:02.776Z,51.56
2023-05-23T06:11:29.808Z,54.74
2023-05-23T06:13:56.546Z,56.52
2023-05-23T06:16:24.073Z,58.19
2023-05-23T06:18:50.897Z,51.89
2023-05-23T06:21:18.207Z,53.96
2023-05-23T06:23:49.112Z,52.03
2023-05-23T06:26:16.007Z,57.40
2023-05-23T06:28:42.851Z,53.09
2023-05-23T06:31:12.658Z,52.95
2023-05-23T06:33:39.510Z,54.08
2023-05-23T06:36:06.623Z,57.30
2023-05-23T06:38:36.179Z,53.69
2023-05-23T06:41:04.052Z,51.33
2023-05-23T06:43:32.043Z,48.31
2023-05-23T06:46:21.588Z,51.98
2023-05-23T06:48:50.709Z,48.36
2023-05-23T06:51:21.231Z,51.20
2023-05-23T06:53:48.595Z,49.07
2023-05-23T06:56:16.134Z,44.01
2023-05-23T06:58:54.779Z,45.62
2023-05-23T07:01:21.940Z,43.70
2023-05-23T07:03:50.848Z,43.22
2023-05-23T07:06:18.240Z,46.34
2023-05-23T07:08:46.792Z,46.71
2023-05-23T07:11:14.832Z,44.33
2023-05-23T07:13:44.498Z,42.56
2023-05-23T07:16:19.623Z,43.33
2023-05-23T07:19:02.071Z,46.81
2023-05-23T07:21:29.936Z,41.65
2023-05-23T07:23:56.714Z,44.97
2023-05-23T07:26:23.670Z,44.58
2023-05-23T07:28:54.577Z,42.07
2023-05-23T07:31:22.600Z,40.06
2023-05-23T07:33:58.604Z,43.01
2023-05-23T07:36:34.201Z,43.10
2023-05-23T07:39:02.301Z,41.46
2023-05-23T07:41:29.225Z,40.51
2023-05-23T07:43:56.046Z,42.04
2023-05-23T07:46:23.198Z,40.56
2023-05-23T07:48:50.036Z,39.35
2023-05-23T07:51:18.955Z,41.07
2023-05-23T07:53:45.767Z,38.29
2023-05-23T07:56:13.403Z,39.74
2023-05-23T07:58:41.894Z,38.40
2023-05-23T08:01:09.042Z,40.95
2023-05-23T08:04:02.626Z,42.66
2023-05-23T08:06:52.116Z,42.60
2023-05-23T08:09:38.173Z,43.89
2023-05-23T08:12:06.168Z,44.18
2023-05-23T08:14:46.290Z,41.86
2023-05-23T08:17:24.856Z,38.27
2023-05-23T08:19:53.148Z,41.36
2023-05-23T08:22:20.173Z,41.65
2023-05-23T08:24:46.971Z,42.16
2023-05-23T08:27:14.106Z,41.76
2023-05-23T08:29:42.226Z,42.17
2023-05-23T08:32:09.618Z,38.37
2023-05-23T08:34:36.629Z,38.35
2023-05-23T08:37:03.833Z,37.60
2023-05-23T08:39:31.021Z,38.16
2023-05-23T08:42:16.576Z,40.96
2023-05-23T08:44:43.847Z,43.73
2023-05-23T08:47:12.853Z,40.66
2023-05-23T08:50:02.638Z,43.31
2023-05-23T08:52:33.621Z,40.93
2023-05-23T08:55:04.303Z,41.06
2023-05-23T08:57:32.032Z,38.40
2023-05-23T09:00:14.568Z,38.49
2023-05-23T09:02:44.140Z,36.58
2023-05-23T09:05:23.740Z,38.42
2023-05-23T09:07:55.136Z,37.55
2023-05-23T09:10:22.716Z,36.75
2023-05-23T09:12:50.677Z,39.60
2023-05-23T09:15:17.680Z,38.51
2023-05-23T09:17:45.811Z,37.93
2023-05-23T09:20:16.576Z,38.36
2023-05-23T09:22:50.703Z,35.11
2023-05-23T09:25:18.521Z,36.63
2023-05-23T09:27:48.315Z,36.96
2023-05-23T09:30:16.125Z,36.57
2023-05-23T09:32:44.720Z,36.95
2023-05-23T09:35:14.224Z,38.51
2023-05-23T09:37:46.125Z,38.14
2023-05-23T09:40:15.399Z,39.80
2023-05-23T09:42:53.138Z,41.12
2023-05-23T09:45:19.999Z,39.78
2023-05-23T09:47:53.709Z,38.18
2023-05-23T09:50:21.302Z,39.55
2023-05-23T09:52:48.587Z,34.42
2023-05-23T09:55:15.735Z,36.90
2023-05-23T09:57:43.904Z,35.42
2023-05-23T10:00:41.528Z,33.23
2023-05-23T10:03:13.651Z,35.28
2023-05-23T10:05:51.498Z,37.47
2023-05-23T10:08:34.234Z,38.23
2023-05-23T10:11:16.997Z,36.12
2023-05-23T10:13:45.783Z,37.52
2023-05-23T10:16:28.958Z,40.29
2023-05-23T10:18:59.305Z,33.70
2023-05-23T10:21:38.955Z,37.61
2023-05-23T10:24:07.436Z,36.03
2023-05-23T10:26:34.460Z,34.45
2023-05-23T10:29:01.779Z,35.01
2023-05-23T10:31:29.786Z,33.14
2023-05-23T10:34:19.993Z,36.65
2023-05-23T10:37:06.686Z,37.53
2023-05-23T10:39:44.483Z,37.52
2023-05-23T10:42:31.530Z,38.87
2023-05-23T10:45:15.595Z,38.49
2023-05-23T10:47:42.501Z,38.35
2023-05-23T10:50:13.985Z,39.56
2023-05-23T10:52:41.931Z,40.58
2023-05-23T10:55:17.893Z,41.55
2023-05-23T10:57:45.226Z,43.26
2023-05-23T11:00:16.494Z,41.34
2023-05-23T11:03:06.190Z,41.59
2023-05-23T11:05:33.926Z,40.48
2023-05-23T11:08:14.641Z,40.21
2023-05-23T11:11:00.309Z,44.99
2023-05-23T11:13:56.191Z,44.12
2023-05-23T11:16:31.626Z,40.47
2023-05-23T11:19:18.805Z,40.14
2023-05-23T11:21:49.223Z,39.46
2023-05-23T11:24:16.621Z,39.06
2023-05-23T11:27:00.393Z,41.13
2023-05-23T11:29:28.928Z,37.88
2023-05-23T11:31:56.739Z,38.94
2023-05-23T11:34:26.416Z,38.36
2023-05-23T11:36:56.634Z,39.06
2023-05-23T11:39:24.130Z,40.98
2023-05-23T11:42:02.717Z,39.09
2023-05-23T11:44:29.881Z,32.11
2023-05-23T11:47:04.813Z,32.33
2023-05-23T11:49:32.703Z,34.12
2023-05-23T11:52:00.390Z,32.98
2023-05-23T11:54:27.513Z,35.17
2023-05-23T11:56:55.678Z,36.10
2023-05-23T11:59:26.553Z,39.81
2023-05-23T12:01:54.387Z,38.62
2023-05-23T12:04:21.830Z,38.00
2023-05-23T12:06:50.673Z,38.89
2023-05-23T12:09:17.583Z,38.34
2023-05-23T12:11:46.012Z,37.32
2023-05-23T12:14:17.536Z,38.52
2023-05-23T12:16:46.920Z,36.64
2023-05-23T12:19:16.637Z,33.36
2023-05-23T12:21:49.087Z,39.92
2023-05-23T12:24:17.604Z,41.12
2023-05-23T12:26:51.356Z,39.08
2023-05-23T12:29:37.827Z,42.63
2023-05-23T12:32:08.212Z,42.48
2023-05-23T12:34:35.218Z,42.95
2023-05-23T12:39:36.576Z,38.99
2023-05-23T12:42:09.978Z,38.54
2023-05-23T12:44:37.087Z,41.77
2023-05-23T12:47:04.198Z,40.48
2023-05-23T12:49:31.262Z,38.90
2023-05-23T12:51:58.265Z,39.85
2023-05-23T12:54:25.179Z,38.62
2023-05-23T12:56:51.945Z,35.18
2023-05-23T12:59:19.546Z,35.07
2023-05-23T13:01:47.261Z,34.41
2023-05-23T13:04:16.277Z,36.24
2023-05-23T13:06:43.138Z,37.93
2023-05-23T13:09:10.335Z,37.42
2023-05-23T13:11:38.232Z,37.65
2023-05-23T13:14:05.037Z,38.44
2023-05-23T13:16:32.379Z,38.98
2023-05-23T13:18:59.315Z,39.36
2023-05-23T13:21:26.494Z,38.49
2023-05-23T13:23:53.416Z,41.29
2023-05-23T13:26:20.383Z,40.20
2023-05-23T13:28:47.195Z,44.19
2023-05-23T13:31:14.042Z,45.53
2023-05-23T13:33:42.030Z,44.92
2023-05-23T13:36:08.853Z,45.67
2023-05-23T13:38:36.064Z,48.06
2023-05-23T13:41:02.913Z,50.37
2023-05-23T13:43:29.893Z,50.21
2023-05-23T13:45:56.782Z,49.59
2023-05-23T13:48:24.188Z,54.51
2023-05-23T13:50:51.317Z,54.22
2023-05-23T13:53:21.700Z,56.46
2023-05-23T13:55:49.121Z,52.53
2023-05-23T13:58:15.949Z,58.75
2023-05-23T14:00:43.542Z,52.77
2023-05-23T14:03:12.092Z,52.53
2023-05-23T14:05:39.085Z,51.60
2023-05-23T14:08:06.090Z,57.45
2023-05-23T14:10:35.779Z,56.89
2023-05-23T14:13:02.583Z,59.77
2023-05-23T14:15:30.120Z,57.23
2023-05-23T14:17:58.305Z,52.32
2023-05-23T14:20:25.545Z,55.11
2023-05-23T14:22:52.579Z,51.26
2023-05-23T14:25:19.413Z,58.33
2023-05-23T14:27:46.270Z,58.13
2023-05-23T14:30:13.885Z,56.00
2023-05-23T14:32:41.292Z,55.12
2023-05-23T14:35:12.091Z,53.69
2023-05-23T14:37:39.400Z,51.47
2023-05-23T14:40:07.192Z,53.04
2023-05-23T14:42:34.079Z,51.47
2023-05-23T14:45:00.812Z,53.18
2023-05-23T14:47:27.921Z,47.48
2023-05-23T14:49:54.955Z,50.21
2023-05-23T14:52:21.896Z,53.11
2023-05-23T14:54:48.725Z,53.51
2023-05-23T14:57:15.646Z,54.71
2023-05-23T14:59:42.623Z,55.95
2023-05-23T15:02:09.734Z,51.59
2023-05-23T15:04:37.591Z,47.51
2023-05-23T15:07:04.914Z,47.95
2023-05-23T15:09:32.298Z,47.79
2023-05-23T15:11:59.608Z,50.75
2023-05-23T15:14:29.823Z,51.72
2023-05-23T15:16:57.217Z,52.06
2023-05-23T15:19:24.860Z,46.90
2023-05-23T15:21:52.156Z,49.63
2023-05-23T15:24:19.287Z,53.15
2023-05-23T15:26:46.203Z,58.36
2023-05-23T15:29:14.620Z,49.91
2023-05-23T15:31:41.657Z,49.14
2023-05-23T15:34:08.634Z,52.98
2023-05-23T15:36:36.580Z,58.67
2023-05-23T15:39:05.337Z,57.41
2023-05-23T15:41:32.260Z,56.17
2023-05-23T15:43:59.455Z,56.88
2023-05-23T15:46:26.522Z,51.20
2023-05-23T15:48:53.576Z,52.23
2023-05-23T15:51:21.102Z,58.55
2023-05-23T15:54:00.744Z,58.38
2023-05-23T15:56:28.414Z,58.20
2023-05-23T15:58:56.262Z,54.42
2023-05-23T16:01:23.274Z,55.17
2023-05-23T16:03:50.633Z,53.95
2023-05-23T16:06:17.472Z,59.72
2023-05-23T16:08:44.707Z,53.42
2023-05-23T16:11:11.697Z,58.21
2023-05-23T16:13:38.518Z,55.54
2023-05-23T16:16:05.703Z,55.16
2023-05-23T16:18:32.685Z,57.82
2023-05-23T16:20:59.950Z,56.13
2023-05-23T16:23:27.027Z,52.43
2023-05-23T16:25:53.975Z,50.39
2023-05-23T16:28:21.760Z,56.51
2023-05-23T16:30:50.614Z,52.11
2023-05-23T16:33:17.596Z,53.19
2023-05-23T16:35:44.642Z,54.52
2023-05-23T16:38:11.896Z,57.97
2023-05-23T16:40:38.789Z,52.96
2023-05-23T16:43:05.776Z,52.48
2023-05-23T16:45:32.629Z,58.39
2023-05-23T16:48:01.058Z,53.97
2023-05-23T16:50:28.023Z,53.87
2023-05-23T16:52:55.897Z,57.45
2023-05-23T16:55:22.868Z,54.72
2023-05-23T16:57:49.784Z,53.63
2023-05-23T17:00:17.385Z,56.27
2023-05-23T17:02:44.337Z,55.67
2023-05-23T17:05:11.667Z,52.86
2023-05-23T17:07:38.397Z,56.34
2023-05-23T17:10:05.994Z,52.03
2023-05-23T17:12:32.776Z,54.80
2023-05-23T17:14:59.543Z,53.06
2023-05-23T17:17:26.306Z,53.71
2023-05-23T17:19:53.235Z,53.46
2023-05-23T17:22:20.131Z,52.65
2023-05-23T17:24:47.159Z,53.89
2023-05-23T17:27:14.129Z,51.72
2023-05-23T17:29:41.212Z,49.29
2023-05-23T17:32:09.098Z,48.65
2023-05-23T17:34:35.853Z,51.02
2023-05-23T17:37:02.750Z,48.68
2023-05-23T17:39:29.608Z,46.80
2023-05-23T17:41:56.474Z,49.98
2023-05-23T17:44:23.275Z,48.72
2023-05-23T17:46:50.275Z,52.94
2023-05-23T17:49:17.623Z,51.59
2023-05-23T17:51:44.631Z,48.53
2023-05-23T17:54:11.556Z,47.23
2023-05-23T17:56:38.371Z,53.36
2023-05-23T17:59:05.895Z,58.75
2023-05-23T18:01:34.267Z,58.51
2023-05-23T18:04:02.152Z,54.15
2023-05-23T18:06:29.182Z,54.61
2023-05-23T18:08:56.746Z,56.01
2023-05-23T18:11:24.405Z,62.08
2023-05-23T18:13:51.445Z,57.18
2023-05-23T18:16:18.221Z,52.89
2023-05-23T18:21:11.943Z,53.99
2023-05-23T18:23:38.924Z,52.15
2023-05-23T18:26:05.728Z,56.41
2023-05-23T18:28:32.619Z,56.66
2023-05-23T18:30:59.366Z,51.59
2023-05-23T18:33:28.038Z,51.82
2023-05-23T18:35:54.914Z,58.72
2023-05-23T18:38:22.034Z,51.60
2023-05-23T18:40:48.986Z,56.32
2023-05-23T18:43:17.486Z,61.41
2023-05-23T18:45:44.713Z,59.31
2023-05-23T18:48:12.185Z,61.92
2023-05-23T18:50:39.083Z,63.65
2023-05-23T18:53:06.412Z,62.13
2023-05-23T18:55:34.065Z,54.94
2023-05-23T18:58:01.294Z,57.62
2023-05-23T19:00:28.405Z,54.51
2023-05-23T19:02:55.397Z,56.86
2023-05-23T19:05:22.183Z,56.72
2023-05-23T19:07:48.971Z,54.55
2023-05-23T19:10:15.994Z,55.32
2023-05-23T19:12:43.001Z,58.94
2023-05-23T19:15:10.776Z,58.82
2023-05-23T19:17:38.714Z,59.42
2023-05-23T19:20:06.360Z,56.67
2023-05-23T19:22:47.051Z,54.53
2023-05-23T19:25:18.415Z,52.53
2023-05-23T19:27:45.558Z,51.80
2023-05-23T19:30:12.583Z,52.70
2023-05-23T19:32:39.378Z,49.42
2023-05-23T19:35:06.766Z,51.06
2023-05-23T19:37:33.585Z,49.79
2023-05-23T19:40:01.908Z,47.65
2023-05-23T19:42:28.825Z,55.95
2023-05-23T19:44:55.668Z,51.33
2023-05-23T19:47:22.462Z,51.43
2023-05-23T19:49:49.334Z,50.21
2023-05-23T19:52:16.153Z,52.94
2023-05-23T19:54:42.892Z,52.39
2023-05-23T19:57:09.711Z,53.76
2023-05-23T19:59:36.571Z,58.71
2023-05-23T20:02:03.564Z,58.13
2023-05-23T20:04:30.558Z,57.63
2023-05-23T20:06:57.847Z,56.34
2023-05-23T20:09:24.689Z,59.12
2023-05-23T20:11:51.477Z,59.80
2023-05-23T20:14:18.318Z,56.92
2023-05-23T20:16:45.086Z,57.46
2023-05-23T20:19:11.884Z,55.57
2023-05-23T20:21:38.825Z,50.19
2023-05-23T20:24:05.796Z,49.06
2023-05-23T20:26:32.652Z,48.81
2023-05-23T20:28:59.971Z,51.00
2023-05-23T20:31:26.860Z,55.61
2023-05-23T20:33:53.724Z,59.13
2023-05-23T20:36:21.086Z,58.71
2023-05-23T20:38:47.982Z,55.41
2023-05-23T20:41:14.991Z,54.89
2023-05-23T20:43:44.264Z,54.62
2023-05-23T20:46:11.786Z,53.70
2023-05-23T20:48:38.736Z,53.81
2023-05-23T20:51:07.515Z,52.74
2023-05-23T20:53:34.983Z,53.15
2023-05-23T20:56:03.163Z,50.29
2023-05-23T20:58:29.993Z,54.83
2023-05-23T21:00:57.857Z,56.42
2023-05-23T21:03:24.880Z,54.69
2023-05-23T21:05:51.730Z,52.56
2023-05-23T21:08:18.528Z,54.29
2023-05-23T21:10:49.346Z,50.05
2023-05-23T21:13:17.796Z,49.58
2023-05-23T21:15:44.867Z,51.57
2023-05-23T21:18:11.979Z,49.79
2023-05-23T21:20:38.892Z,50.57
2023-05-23T21:23:05.663Z,52.50
2023-05-23T21:25:32.805Z,53.24
2023-05-23T21:28:00.027Z,54.42
2023-05-23T21:30:26.820Z,55.67
2023-05-23T21:32:53.662Z,52.21
2023-05-23T21:35:20.456Z,52.61
2023-05-23T21:37:47.171Z,53.38
2023-05-23T21:40:13.932Z,51.58
2023-05-23T21:42:40.746Z,51.58
2023-05-23T21:45:08.412Z,50.87
2023-05-23T21:47:35.267Z,47.52
2023-05-23T21:50:04.219Z,48.77
2023-05-23T21:52:31.747Z,48.76
2023-05-23T21:54:58.724Z,50.13
2023-05-23T21:57:25.577Z,50.90
2023-05-23T21:59:52.319Z,49.25
2023-05-23T22:02:19.089Z,50.85
2023-05-23T22:04:46.274Z,49.19
2023-05-23T22:07:13.092Z,49.72
2023-05-23T22:09:39.873Z,49.21
2023-05-23T22:12:06.877Z,52.88
2023-05-23T22:14:33.764Z,49.20
2023-05-23T22:17:02.407Z,51.13
2023-05-23T22:19:30.391Z,51.38
2023-05-23T22:21:57.321Z,50.20
2023-05-23T22:24:25.301Z,47.88
2023-05-23T22:26:52.232Z,46.04
2023-05-23T22:29:19.007Z,46.29
2023-05-23T22:31:46.997Z,48.03
2023-05-23T22:34:14.106Z,56.71
2023-05-23T22:36:40.953Z,55.45
2023-05-23T22:39:08.217Z,51.53
2023-05-23T22:41:36.144Z,52.60
2023-05-23T22:44:03.429Z,50.92
2023-05-23T22:46:30.633Z,49.35
2023-05-23T22:48:58.222Z,47.43
2023-05-23T22:51:24.986Z,48.32
2023-05-23T22:53:52.821Z,50.14
2023-05-23T22:56:19.609Z,49.42
2023-05-23T22:58:46.499Z,48.63
2023-05-23T23:01:13.364Z,47.15
2023-05-23T23:03:40.233Z,46.90
2023-05-23T23:06:07.646Z,50.78
2023-05-23T23:08:34.534Z,49.59
2023-05-23T23:11:01.657Z,49.55
2023-05-23T23:13:28.489Z,49.35
2023-05-23T23:15:55.597Z,51.12
2023-05-23T23:18:22.337Z,51.28
2023-05-23T23:20:49.228Z,51.73
2023-05-23T23:23:16.193Z,48.61
2023-05-23T23:25:43.122Z,51.62
2023-05-23T23:28:09.890Z,49.02
2023-05-23T23:30:36.825Z,48.08
2023-05-23T23:33:04.000Z,49.89
2023-05-23T23:35:31.077Z,50.11
2023-05-23T23:37:57.790Z,49.90
2023-05-23T23:40:24.549Z,48.30
2023-05-23T23:42:51.327Z,51.02
2023-05-23T23:45:18.296Z,49.11
2023-05-23T23:47:46.262Z,49.21
2023-05-23T23:50:16.148Z,49.60
2023-05-23T23:52:43.021Z,49.70
2023-05-23T23:55:10.019Z,48.42
2023-05-23T23:57:36.772Z,48.15
